sensor_id;sensor_type;location;lat;lon;timestamp;temperature;humidity
82506;SHT30;72144;51.444;10.560;2024-02-14T00:00:07;5.85;81.14
82506;SHT30;72144;51.444;10.560;2024-02-14T00:02:35;5.82;81.18
82506;SHT30;72144;51.444;10.560;2024-02-14T00:05:02;5.82;81.15
82506;SHT30;72144;51.444;10.560;2024-02-14T00:07:28;5.82;81.17
82506;SHT30;72144;51.444;10.560;2024-02-14T00:09:53;5.82;81.12
82506;SHT30;72144;51.444;10.560;2024-02-14T00:12:19;5.79;81.20
82506;SHT30;72144;51.444;10.560;2024-02-14T00:14:45;5.81;81.12
82506;SHT30;72144;51.444;10.560;2024-02-14T00:17:10;5.81;81.12
82506;SHT30;72144;51.444;10.560;2024-02-14T00:19:35;5.82;81.14
82506;SHT30;72144;51.444;10.560;2024-02-14T00:22:01;5.81;81.15
82506;SHT30;72144;51.444;10.560;2024-02-14T00:24:26;5.79;81.16
82506;SHT30;72144;51.444;10.560;2024-02-14T00:26:54;5.81;81.21
82506;SHT30;72144;51.444;10.560;2024-02-14T00:29:20;5.79;81.23
82506;SHT30;72144;51.444;10.560;2024-02-14T00:31:46;5.81;81.22
82506;SHT30;72144;51.444;10.560;2024-02-14T00:34:11;5.78;81.25
82506;SHT30;72144;51.444;10.560;2024-02-14T00:36:37;5.82;81.23
82506;SHT30;72144;51.444;10.560;2024-02-14T00:39:03;5.79;81.24
82506;SHT30;72144;51.444;10.560;2024-02-14T00:41:28;5.82;81.20
82506;SHT30;72144;51.444;10.560;2024-02-14T00:43:55;5.82;81.20
82506;SHT30;72144;51.444;10.560;2024-02-14T00:46:21;5.79;81.18
82506;SHT30;72144;51.444;10.560;2024-02-14T00:48:47;5.81;81.21
82506;SHT30;72144;51.444;10.560;2024-02-14T00:51:12;5.84;81.24
82506;SHT30;72144;51.444;10.560;2024-02-14T00:53:38;5.81;81.29
82506;SHT30;72144;51.444;10.560;2024-02-14T00:56:03;5.82;81.36
82506;SHT30;72144;51.444;10.560;2024-02-14T00:58:29;5.81;81.34
82506;SHT30;72144;51.444;10.560;2024-02-14T01:00:54;5.81;81.32
82506;SHT30;72144;51.444;10.560;2024-02-14T01:03:19;5.81;81.32
82506;SHT30;72144;51.444;10.560;2024-02-14T01:05:45;5.79;81.34
82506;SHT30;72144;51.444;10.560;2024-02-14T01:08:12;5.81;81.33
82506;SHT30;72144;51.444;10.560;2024-02-14T01:10:38;5.82;81.31
82506;SHT30;72144;51.444;10.560;2024-02-14T01:13:03;5.79;81.42
82506;SHT30;72144;51.444;10.560;2024-02-14T01:15:28;5.82;81.43
82506;SHT30;72144;51.444;10.560;2024-02-14T01:17:54;5.82;81.41
82506;SHT30;72144;51.444;10.560;2024-02-14T01:20:19;5.82;81.46
82506;SHT30;72144;51.444;10.560;2024-02-14T01:22:45;5.81;81.51
82506;SHT30;72144;51.444;10.560;2024-02-14T01:25:11;5.82;81.50
82506;SHT30;72144;51.444;10.560;2024-02-14T01:27:37;5.81;81.54
82506;SHT30;72144;51.444;10.560;2024-02-14T01:30:02;5.82;81.56
82506;SHT30;72144;51.444;10.560;2024-02-14T01:32:29;5.84;81.60
82506;SHT30;72144;51.444;10.560;2024-02-14T01:34:55;5.81;81.56
82506;SHT30;72144;51.444;10.560;2024-02-14T01:37:20;5.82;81.62
82506;SHT30;72144;51.444;10.560;2024-02-14T01:39:46;5.79;81.57
82506;SHT30;72144;51.444;10.560;2024-02-14T01:42:11;5.79;81.54
82506;SHT30;72144;51.444;10.560;2024-02-14T01:44:37;5.81;81.57
82506;SHT30;72144;51.444;10.560;2024-02-14T01:47:02;5.78;81.53
82506;SHT30;72144;51.444;10.560;2024-02-14T01:49:28;5.78;81.59
82506;SHT30;72144;51.444;10.560;2024-02-14T01:51:57;5.77;81.62
82506;SHT30;72144;51.444;10.560;2024-02-14T01:54:25;5.77;81.62
82506;SHT30;72144;51.444;10.560;2024-02-14T01:56:51;5.75;81.66
82506;SHT30;72144;51.444;10.560;2024-02-14T01:59:17;5.77;81.68
82506;SHT30;72144;51.444;10.560;2024-02-14T02:01:43;5.78;81.75
82506;SHT30;72144;51.444;10.560;2024-02-14T02:04:09;5.78;81.70
82506;SHT30;72144;51.444;10.560;2024-02-14T02:06:35;5.77;81.69
82506;SHT30;72144;51.444;10.560;2024-02-14T02:09:00;5.77;81.68
82506;SHT30;72144;51.444;10.560;2024-02-14T02:11:26;5.75;81.69
82506;SHT30;72144;51.444;10.560;2024-02-14T02:13:52;5.75;81.69
82506;SHT30;72144;51.444;10.560;2024-02-14T02:16:17;5.75;81.68
82506;SHT30;72144;51.444;10.560;2024-02-14T02:18:45;5.77;81.72
82506;SHT30;72144;51.444;10.560;2024-02-14T02:21:10;5.75;81.66
82506;SHT30;72144;51.444;10.560;2024-02-14T02:23:38;5.75;81.66
82506;SHT30;72144;51.444;10.560;2024-02-14T02:26:06;5.75;81.65
82506;SHT30;72144;51.444;10.560;2024-02-14T02:28:32;5.77;81.65
82506;SHT30;72144;51.444;10.560;2024-02-14T02:30:57;5.78;81.68
82506;SHT30;72144;51.444;10.560;2024-02-14T02:33:23;5.78;81.74
82506;SHT30;72144;51.444;10.560;2024-02-14T02:35:48;5.79;81.67
82506;SHT30;72144;51.444;10.560;2024-02-14T02:38:17;5.78;81.72
82506;SHT30;72144;51.444;10.560;2024-02-14T02:40:45;5.81;81.72
82506;SHT30;72144;51.444;10.560;2024-02-14T02:43:10;5.79;81.60
82506;SHT30;72144;51.444;10.560;2024-02-14T02:45:36;5.79;81.59
82506;SHT30;72144;51.444;10.560;2024-02-14T02:48:01;5.82;81.56
82506;SHT30;72144;51.444;10.560;2024-02-14T02:50:27;5.81;81.53
82506;SHT30;72144;51.444;10.560;2024-02-14T02:52:53;5.82;81.58
82506;SHT30;72144;51.444;10.560;2024-02-14T02:55:20;5.84;81.55
82506;SHT30;72144;51.444;10.560;2024-02-14T02:57:45;5.85;81.57
82506;SHT30;72144;51.444;10.560;2024-02-14T03:00:11;5.87;81.55
82506;SHT30;72144;51.444;10.560;2024-02-14T03:02:41;5.87;81.51
82506;SHT30;72144;51.444;10.560;2024-02-14T03:05:10;5.88;81.50
82506;SHT30;72144;51.444;10.560;2024-02-14T03:07:43;5.89;81.45
82506;SHT30;72144;51.444;10.560;2024-02-14T03:10:10;5.92;81.55
82506;SHT30;72144;51.444;10.560;2024-02-14T03:12:39;5.95;81.56
82506;SHT30;72144;51.444;10.560;2024-02-14T03:15:04;5.97;81.59
82506;SHT30;72144;51.444;10.560;2024-02-14T03:17:30;5.98;81.63
82506;SHT30;72144;51.444;10.560;2024-02-14T03:19:56;5.94;81.64
82506;SHT30;72144;51.444;10.560;2024-02-14T03:22:21;5.98;81.63
82506;SHT30;72144;51.444;10.560;2024-02-14T03:24:47;5.99;81.71
82506;SHT30;72144;51.444;10.560;2024-02-14T03:27:13;5.99;81.73
82506;SHT30;72144;51.444;10.560;2024-02-14T03:29:38;6.02;81.75
82506;SHT30;72144;51.444;10.560;2024-02-14T03:32:05;6.05;81.74
82506;SHT30;72144;51.444;10.560;2024-02-14T03:34:31;6.05;81.77
82506;SHT30;72144;51.444;10.560;2024-02-14T03:36:59;6.08;81.87
82506;SHT30;72144;51.444;10.560;2024-02-14T03:39:25;6.06;81.84
82506;SHT30;72144;51.444;10.560;2024-02-14T03:41:51;6.08;81.85
82506;SHT30;72144;51.444;10.560;2024-02-14T03:44:18;6.08;81.91
82506;SHT30;72144;51.444;10.560;2024-02-14T03:46:43;6.10;81.92
82506;SHT30;72144;51.444;10.560;2024-02-14T03:49:08;6.08;81.93
82506;SHT30;72144;51.444;10.560;2024-02-14T03:51:34;6.13;81.91
82506;SHT30;72144;51.444;10.560;2024-02-14T03:53:59;6.09;81.90
82506;SHT30;72144;51.444;10.560;2024-02-14T03:56:24;6.08;81.98
82506;SHT30;72144;51.444;10.560;2024-02-14T03:58:51;6.10;82.03
82506;SHT30;72144;51.444;10.560;2024-02-14T04:01:17;6.09;82.02
82506;SHT30;72144;51.444;10.560;2024-02-14T04:03:42;6.12;82.06
82506;SHT30;72144;51.444;10.560;2024-02-14T04:06:07;6.10;82.13
82506;SHT30;72144;51.444;10.560;2024-02-14T04:08:33;6.16;82.14
82506;SHT30;72144;51.444;10.560;2024-02-14T04:10:58;6.15;82.18
82506;SHT30;72144;51.444;10.560;2024-02-14T04:13:24;6.15;82.21
82506;SHT30;72144;51.444;10.560;2024-02-14T04:15:49;6.13;82.20
82506;SHT30;72144;51.444;10.560;2024-02-14T04:18:15;6.16;82.24
82506;SHT30;72144;51.444;10.560;2024-02-14T04:20:43;6.16;82.25
82506;SHT30;72144;51.444;10.560;2024-02-14T04:23:09;6.17;82.22
82506;SHT30;72144;51.444;10.560;2024-02-14T04:25:36;6.16;82.24
82506;SHT30;72144;51.444;10.560;2024-02-14T04:28:04;6.19;82.21
82506;SHT30;72144;51.444;10.560;2024-02-14T04:30:30;6.17;82.20
82506;SHT30;72144;51.444;10.560;2024-02-14T04:32:55;6.19;82.21
82506;SHT30;72144;51.444;10.560;2024-02-14T04:35:22;6.17;82.23
82506;SHT30;72144;51.444;10.560;2024-02-14T04:37:47;6.19;82.24
82506;SHT30;72144;51.444;10.560;2024-02-14T04:40:15;6.22;82.27
82506;SHT30;72144;51.444;10.560;2024-02-14T04:42:41;6.20;82.30
82506;SHT30;72144;51.444;10.560;2024-02-14T04:45:07;6.25;82.31
82506;SHT30;72144;51.444;10.560;2024-02-14T04:47:33;6.26;82.37
82506;SHT30;72144;51.444;10.560;2024-02-14T04:49:58;6.25;82.33
82506;SHT30;72144;51.444;10.560;2024-02-14T04:52:25;6.26;82.34
82506;SHT30;72144;51.444;10.560;2024-02-14T04:54:50;6.29;82.31
82506;SHT30;72144;51.444;10.560;2024-02-14T04:57:16;6.30;82.41
82506;SHT30;72144;51.444;10.560;2024-02-14T04:59:41;6.29;82.40
82506;SHT30;72144;51.444;10.560;2024-02-14T05:02:07;6.27;82.43
82506;SHT30;72144;51.444;10.560;2024-02-14T05:04:32;6.30;82.42
82506;SHT30;72144;51.444;10.560;2024-02-14T05:07:00;6.32;82.47
82506;SHT30;72144;51.444;10.560;2024-02-14T05:09:25;6.33;82.52
82506;SHT30;72144;51.444;10.560;2024-02-14T05:11:51;6.34;82.54
82506;SHT30;72144;51.444;10.560;2024-02-14T05:14:16;6.34;82.59
82506;SHT30;72144;51.444;10.560;2024-02-14T05:16:41;6.38;82.59
82506;SHT30;72144;51.444;10.560;2024-02-14T05:19:07;6.41;82.62
82506;SHT30;72144;51.444;10.560;2024-02-14T05:21:32;6.37;82.58
82506;SHT30;72144;51.444;10.560;2024-02-14T05:23:58;6.40;82.59
82506;SHT30;72144;51.444;10.560;2024-02-14T05:26:23;6.41;82.62
82506;SHT30;72144;51.444;10.560;2024-02-14T05:28:48;6.43;82.62
82506;SHT30;72144;51.444;10.560;2024-02-14T05:31:14;6.45;82.65
82506;SHT30;72144;51.444;10.560;2024-02-14T05:33:40;6.47;82.68
82506;SHT30;72144;51.444;10.560;2024-02-14T05:36:06;6.48;82.66
82506;SHT30;72144;51.444;10.560;2024-02-14T05:38:32;6.48;82.62
82506;SHT30;72144;51.444;10.560;2024-02-14T05:40:58;6.51;82.61
82506;SHT30;72144;51.444;10.560;2024-02-14T05:43:24;6.50;82.40
82506;SHT30;72144;51.444;10.560;2024-02-14T05:45:49;6.54;82.61
82506;SHT30;72144;51.444;10.560;2024-02-14T05:48:15;6.53;82.70
82506;SHT30;72144;51.444;10.560;2024-02-14T05:50:40;6.54;82.77
82506;SHT30;72144;51.444;10.560;2024-02-14T05:53:05;6.57;82.79
82506;SHT30;72144;51.444;10.560;2024-02-14T05:55:31;6.58;82.86
82506;SHT30;72144;51.444;10.560;2024-02-14T05:57:57;6.61;82.86
82506;SHT30;72144;51.444;10.560;2024-02-14T06:00:24;6.61;82.86
82506;SHT30;72144;51.444;10.560;2024-02-14T06:02:50;6.61;82.87
82506;SHT30;72144;51.444;10.560;2024-02-14T06:05:16;6.61;82.88
82506;SHT30;72144;51.444;10.560;2024-02-14T06:07:43;6.61;82.95
82506;SHT30;72144;51.444;10.560;2024-02-14T06:10:10;6.61;82.92
82506;SHT30;72144;51.444;10.560;2024-02-14T06:12:36;6.60;82.95
82506;SHT30;72144;51.444;10.560;2024-02-14T06:15:01;6.60;83.00
82506;SHT30;72144;51.444;10.560;2024-02-14T06:17:27;6.61;83.04
82506;SHT30;72144;51.444;10.560;2024-02-14T06:19:53;6.61;83.07
82506;SHT30;72144;51.444;10.560;2024-02-14T06:22:19;6.61;83.09
82506;SHT30;72144;51.444;10.560;2024-02-14T06:24:45;6.63;83.10
82506;SHT30;72144;51.444;10.560;2024-02-14T06:27:13;6.63;83.15
82506;SHT30;72144;51.444;10.560;2024-02-14T06:29:44;6.64;83.23
82506;SHT30;72144;51.444;10.560;2024-02-14T06:32:13;6.65;83.29
82506;SHT30;72144;51.444;10.560;2024-02-14T06:34:38;6.67;83.23
82506;SHT30;72144;51.444;10.560;2024-02-14T06:37:04;6.68;83.32
82506;SHT30;72144;51.444;10.560;2024-02-14T06:39:29;6.68;83.41
82506;SHT30;72144;51.444;10.560;2024-02-14T06:41:55;6.71;83.37
82506;SHT30;72144;51.444;10.560;2024-02-14T06:44:22;6.70;83.33
82506;SHT30;72144;51.444;10.560;2024-02-14T06:46:48;6.72;83.30
82506;SHT30;72144;51.444;10.560;2024-02-14T06:49:13;6.72;83.31
82506;SHT30;72144;51.444;10.560;2024-02-14T06:51:38;6.71;83.30
82506;SHT30;72144;51.444;10.560;2024-02-14T06:54:04;6.72;83.27
82506;SHT30;72144;51.444;10.560;2024-02-14T06:56:30;6.72;83.29
82506;SHT30;72144;51.444;10.560;2024-02-14T06:58:56;6.74;83.34
82506;SHT30;72144;51.444;10.560;2024-02-14T07:01:26;6.75;83.34
82506;SHT30;72144;51.444;10.560;2024-02-14T07:03:52;6.74;83.40
82506;SHT30;72144;51.444;10.560;2024-02-14T07:06:18;6.74;83.44
82506;SHT30;72144;51.444;10.560;2024-02-14T07:08:43;6.78;83.48
82506;SHT30;72144;51.444;10.560;2024-02-14T07:11:09;6.79;83.51
82506;SHT30;72144;51.444;10.560;2024-02-14T07:13:34;6.79;83.57
82506;SHT30;72144;51.444;10.560;2024-02-14T07:16:00;6.81;83.58
82506;SHT30;72144;51.444;10.560;2024-02-14T07:18:25;6.84;83.61
82506;SHT30;72144;51.444;10.560;2024-02-14T07:20:51;6.85;83.60
82506;SHT30;72144;51.444;10.560;2024-02-14T07:23:18;6.85;83.62
82506;SHT30;72144;51.444;10.560;2024-02-14T07:25:44;6.87;83.61
82506;SHT30;72144;51.444;10.560;2024-02-14T07:28:10;6.91;83.64
82506;SHT30;72144;51.444;10.560;2024-02-14T07:30:35;6.89;83.60
82506;SHT30;72144;51.444;10.560;2024-02-14T07:33:01;6.91;83.61
82506;SHT30;72144;51.444;10.560;2024-02-14T07:35:26;6.93;83.58
82506;SHT30;72144;51.444;10.560;2024-02-14T07:37:52;6.93;83.57
82506;SHT30;72144;51.444;10.560;2024-02-14T07:40:18;6.95;83.56
82506;SHT30;72144;51.444;10.560;2024-02-14T07:42:43;6.99;83.55
82506;SHT30;72144;51.444;10.560;2024-02-14T07:45:09;6.98;83.55
82506;SHT30;72144;51.444;10.560;2024-02-14T07:47:34;6.96;83.51
82506;SHT30;72144;51.444;10.560;2024-02-14T07:49:59;7.00;83.59
82506;SHT30;72144;51.444;10.560;2024-02-14T07:52:25;7.02;83.64
82506;SHT30;72144;51.444;10.560;2024-02-14T07:54:54;7.06;83.66
82506;SHT30;72144;51.444;10.560;2024-02-14T07:57:21;7.07;83.66
82506;SHT30;72144;51.444;10.560;2024-02-14T07:59:47;7.07;83.64
82506;SHT30;72144;51.444;10.560;2024-02-14T08:02:12;7.07;83.61
82506;SHT30;72144;51.444;10.560;2024-02-14T08:04:38;7.10;83.59
82506;SHT30;72144;51.444;10.560;2024-02-14T08:07:03;7.10;83.58
82506;SHT30;72144;51.444;10.560;2024-02-14T08:09:29;7.13;83.54
82506;SHT30;72144;51.444;10.560;2024-02-14T08:11:54;7.15;83.49
82506;SHT30;72144;51.444;10.560;2024-02-14T08:14:20;7.15;83.52
82506;SHT30;72144;51.444;10.560;2024-02-14T08:16:45;7.19;83.47
82506;SHT30;72144;51.444;10.560;2024-02-14T08:19:10;7.19;83.46
82506;SHT30;72144;51.444;10.560;2024-02-14T08:21:36;7.23;83.43
82506;SHT30;72144;51.444;10.560;2024-02-14T08:24:01;7.23;83.41
82506;SHT30;72144;51.444;10.560;2024-02-14T08:26:27;7.26;83.41
82506;SHT30;72144;51.444;10.560;2024-02-14T08:28:53;7.26;83.38
82506;SHT30;72144;51.444;10.560;2024-02-14T08:31:19;7.28;83.36
82506;SHT30;72144;51.444;10.560;2024-02-14T08:33:45;7.31;83.40
82506;SHT30;72144;51.444;10.560;2024-02-14T08:36:10;7.34;83.39
82506;SHT30;72144;51.444;10.560;2024-02-14T08:38:36;7.34;83.33
82506;SHT30;72144;51.444;10.560;2024-02-14T08:41:02;7.40;83.36
82506;SHT30;72144;51.444;10.560;2024-02-14T08:43:27;7.41;83.27
82506;SHT30;72144;51.444;10.560;2024-02-14T08:45:56;7.43;83.32
82506;SHT30;72144;51.444;10.560;2024-02-14T08:48:22;7.44;83.28
82506;SHT30;72144;51.444;10.560;2024-02-14T08:50:48;7.47;83.27
82506;SHT30;72144;51.444;10.560;2024-02-14T08:53:14;7.51;83.24
82506;SHT30;72144;51.444;10.560;2024-02-14T08:55:40;7.54;83.21
82506;SHT30;72144;51.444;10.560;2024-02-14T08:58:05;7.54;83.21
82506;SHT30;72144;51.444;10.560;2024-02-14T09:00:31;7.59;83.16
82506;SHT30;72144;51.444;10.560;2024-02-14T09:02:56;7.64;83.12
82506;SHT30;72144;51.444;10.560;2024-02-14T09:05:25;7.64;83.10
82506;SHT30;72144;51.444;10.560;2024-02-14T09:07:50;7.71;83.19
82506;SHT30;72144;51.444;10.560;2024-02-14T09:10:16;7.72;83.12
82506;SHT30;72144;51.444;10.560;2024-02-14T09:12:41;7.76;83.08
82506;SHT30;72144;51.444;10.560;2024-02-14T09:15:07;7.79;83.03
82506;SHT30;72144;51.444;10.560;2024-02-14T09:17:33;7.82;83.03
82506;SHT30;72144;51.444;10.560;2024-02-14T09:19:59;7.85;83.04
82506;SHT30;72144;51.444;10.560;2024-02-14T09:22:24;7.87;83.06
82506;SHT30;72144;51.444;10.560;2024-02-14T09:24:50;7.90;83.03
82506;SHT30;72144;51.444;10.560;2024-02-14T09:27:16;7.95;83.03
82506;SHT30;72144;51.444;10.560;2024-02-14T09:29:41;7.99;82.96
82506;SHT30;72144;51.444;10.560;2024-02-14T09:32:07;8.02;82.91
82506;SHT30;72144;51.444;10.560;2024-02-14T09:34:33;8.03;82.93
82506;SHT30;72144;51.444;10.560;2024-02-14T09:36:59;8.07;82.93
82506;SHT30;72144;51.444;10.560;2024-02-14T09:39:24;8.09;82.85
82506;SHT30;72144;51.444;10.560;2024-02-14T09:41:55;8.13;82.87
82506;SHT30;72144;51.444;10.560;2024-02-14T09:44:27;8.14;82.85
82506;SHT30;72144;51.444;10.560;2024-02-14T09:46:54;8.16;82.89
82506;SHT30;72144;51.444;10.560;2024-02-14T09:49:21;8.20;82.79
82506;SHT30;72144;51.444;10.560;2024-02-14T09:51:47;8.23;82.83
82506;SHT30;72144;51.444;10.560;2024-02-14T09:54:14;8.27;82.79
82506;SHT30;72144;51.444;10.560;2024-02-14T09:56:40;8.29;82.74
82506;SHT30;72144;51.444;10.560;2024-02-14T09:59:05;8.31;82.74
82506;SHT30;72144;51.444;10.560;2024-02-14T10:01:31;8.36;82.71
82506;SHT30;72144;51.444;10.560;2024-02-14T10:03:56;8.38;82.73
82506;SHT30;72144;51.444;10.560;2024-02-14T10:06:22;8.42;82.69
82506;SHT30;72144;51.444;10.560;2024-02-14T10:08:50;8.44;82.72
82506;SHT30;72144;51.444;10.560;2024-02-14T10:11:19;8.49;82.67
82506;SHT30;72144;51.444;10.560;2024-02-14T10:13:48;8.54;82.65
82506;SHT30;72144;51.444;10.560;2024-02-14T10:16:15;8.57;82.64
82506;SHT30;72144;51.444;10.560;2024-02-14T10:18:41;8.58;82.62
82506;SHT30;72144;51.444;10.560;2024-02-14T10:21:08;8.61;82.61
82506;SHT30;72144;51.444;10.560;2024-02-14T10:23:33;8.65;82.61
82506;SHT30;72144;51.444;10.560;2024-02-14T10:25:59;8.69;82.61
82506;SHT30;72144;51.444;10.560;2024-02-14T10:28:25;8.72;82.60
82506;SHT30;72144;51.444;10.560;2024-02-14T10:30:50;8.76;82.60
82506;SHT30;72144;51.444;10.560;2024-02-14T10:33:16;8.79;82.56
82506;SHT30;72144;51.444;10.560;2024-02-14T10:35:42;8.86;82.59
82506;SHT30;72144;51.444;10.560;2024-02-14T10:38:08;8.86;82.56
82506;SHT30;72144;51.444;10.560;2024-02-14T10:40:36;8.92;82.51
82506;SHT30;72144;51.444;10.560;2024-02-14T10:43:05;8.94;82.49
82506;SHT30;72144;51.444;10.560;2024-02-14T10:45:30;8.96;82.49
82506;SHT30;72144;51.444;10.560;2024-02-14T10:47:56;9.03;82.51
82506;SHT30;72144;51.444;10.560;2024-02-14T10:50:24;9.06;82.50
82506;SHT30;72144;51.444;10.560;2024-02-14T10:52:52;9.10;82.43
82506;SHT30;72144;51.444;10.560;2024-02-14T10:55:20;9.13;82.43
82506;SHT30;72144;51.444;10.560;2024-02-14T10:57:48;9.16;82.44
82506;SHT30;72144;51.444;10.560;2024-02-14T11:00:15;9.20;82.44
82506;SHT30;72144;51.444;10.560;2024-02-14T11:02:43;9.26;82.45
82506;SHT30;72144;51.444;10.560;2024-02-14T11:05:13;9.28;82.38
82506;SHT30;72144;51.444;10.560;2024-02-14T11:07:49;9.30;82.33
82506;SHT30;72144;51.444;10.560;2024-02-14T11:10:19;9.32;82.36
82506;SHT30;72144;51.444;10.560;2024-02-14T11:12:46;9.35;82.34
82506;SHT30;72144;51.444;10.560;2024-02-14T11:15:20;9.38;82.36
82506;SHT30;72144;51.444;10.560;2024-02-14T11:17:47;9.39;82.36
82506;SHT30;72144;51.444;10.560;2024-02-14T11:20:19;9.42;82.32
82506;SHT30;72144;51.444;10.560;2024-02-14T11:22:58;9.44;82.27
82506;SHT30;72144;51.444;10.560;2024-02-14T11:25:29;9.47;82.28
82506;SHT30;72144;51.444;10.560;2024-02-14T11:27:57;9.48;82.30
82506;SHT30;72144;51.444;10.560;2024-02-14T11:30:30;9.51;82.30
82506;SHT30;72144;51.444;10.560;2024-02-14T11:33:12;9.54;82.32
82506;SHT30;72144;51.444;10.560;2024-02-14T11:35:41;9.52;82.31
82506;SHT30;72144;51.444;10.560;2024-02-14T11:38:08;9.54;82.30
82506;SHT30;72144;51.444;10.560;2024-02-14T11:40:34;9.55;82.33
82506;SHT30;72144;51.444;10.560;2024-02-14T11:43:00;9.56;82.35
82506;SHT30;72144;51.444;10.560;2024-02-14T11:45:27;9.54;82.38
82506;SHT30;72144;51.444;10.560;2024-02-14T11:47:52;9.58;82.42
82506;SHT30;72144;51.444;10.560;2024-02-14T11:50:18;9.58;82.41
82506;SHT30;72144;51.444;10.560;2024-02-14T11:52:44;9.59;82.47
82506;SHT30;72144;51.444;10.560;2024-02-14T11:55:09;9.59;82.51
82506;SHT30;72144;51.444;10.560;2024-02-14T11:57:38;9.58;82.56
82506;SHT30;72144;51.444;10.560;2024-02-14T12:00:04;9.56;82.61
82506;SHT30;72144;51.444;10.560;2024-02-14T12:02:30;9.58;82.60
82506;SHT30;72144;51.444;10.560;2024-02-14T12:04:56;9.56;82.64
82506;SHT30;72144;51.444;10.560;2024-02-14T12:07:22;9.58;82.66
82506;SHT30;72144;51.444;10.560;2024-02-14T12:09:48;9.58;82.70
82506;SHT30;72144;51.444;10.560;2024-02-14T12:12:15;9.55;82.75
82506;SHT30;72144;51.444;10.560;2024-02-14T12:14:43;9.55;82.80
82506;SHT30;72144;51.444;10.560;2024-02-14T12:17:10;9.56;82.90
82506;SHT30;72144;51.444;10.560;2024-02-14T12:19:35;9.56;82.87
82506;SHT30;72144;51.444;10.560;2024-02-14T12:22:09;9.56;82.89
82506;SHT30;72144;51.444;10.560;2024-02-14T12:24:37;9.55;82.93
82506;SHT30;72144;51.444;10.560;2024-02-14T12:27:04;9.55;82.98
82506;SHT30;72144;51.444;10.560;2024-02-14T12:29:29;9.58;83.01
82506;SHT30;72144;51.444;10.560;2024-02-14T12:32:06;9.59;83.01
82506;SHT30;72144;51.444;10.560;2024-02-14T12:34:32;9.59;83.05
82506;SHT30;72144;51.444;10.560;2024-02-14T12:36:58;9.59;83.11
82506;SHT30;72144;51.444;10.560;2024-02-14T12:39:29;9.58;83.05
82506;SHT30;72144;51.444;10.560;2024-02-14T12:41:54;9.59;83.08
82506;SHT30;72144;51.444;10.560;2024-02-14T12:44:21;9.62;83.05
82506;SHT30;72144;51.444;10.560;2024-02-14T12:46:47;9.65;83.05
82506;SHT30;72144;51.444;10.560;2024-02-14T12:49:12;9.65;83.05
82506;SHT30;72144;51.444;10.560;2024-02-14T12:51:37;9.66;83.05
82506;SHT30;72144;51.444;10.560;2024-02-14T12:54:04;9.65;83.05
82506;SHT30;72144;51.444;10.560;2024-02-14T12:56:30;9.71;83.05
82506;SHT30;72144;51.444;10.560;2024-02-14T12:58:56;9.68;83.00
82506;SHT30;72144;51.444;10.560;2024-02-14T13:01:22;9.68;82.97
82506;SHT30;72144;51.444;10.560;2024-02-14T13:03:47;9.73;82.96
82506;SHT30;72144;51.444;10.560;2024-02-14T13:06:13;9.71;82.93
82506;SHT30;72144;51.444;10.560;2024-02-14T13:08:41;9.73;82.96
82506;SHT30;72144;51.444;10.560;2024-02-14T13:11:06;9.73;82.96
82506;SHT30;72144;51.444;10.560;2024-02-14T13:13:34;9.73;82.91
82506;SHT30;72144;51.444;10.560;2024-02-14T13:16:00;9.78;82.92
82506;SHT30;72144;51.444;10.560;2024-02-14T13:18:25;9.79;82.88
82506;SHT30;72144;51.444;10.560;2024-02-14T13:20:51;9.79;82.85
82506;SHT30;72144;51.444;10.560;2024-02-14T13:23:22;9.80;82.80
82506;SHT30;72144;51.444;10.560;2024-02-14T13:25:48;9.82;82.79
82506;SHT30;72144;51.444;10.560;2024-02-14T13:28:14;9.82;82.80
82506;SHT30;72144;51.444;10.560;2024-02-14T13:30:39;9.85;82.79
82506;SHT30;72144;51.444;10.560;2024-02-14T13:33:05;9.85;82.82
82506;SHT30;72144;51.444;10.560;2024-02-14T13:35:30;9.86;82.83
82506;SHT30;72144;51.444;10.560;2024-02-14T13:37:57;9.86;82.79
82506;SHT30;72144;51.444;10.560;2024-02-14T13:40:23;9.87;82.79
82506;SHT30;72144;51.444;10.560;2024-02-14T13:42:49;9.90;82.80
82506;SHT30;72144;51.444;10.560;2024-02-14T13:45:14;9.91;82.74
82506;SHT30;72144;51.444;10.560;2024-02-14T13:47:41;9.93;82.77
82506;SHT30;72144;51.444;10.560;2024-02-14T13:50:11;9.96;82.80
82506;SHT30;72144;51.444;10.560;2024-02-14T13:52:37;9.94;82.81
82506;SHT30;72144;51.444;10.560;2024-02-14T13:55:03;9.97;82.76
82506;SHT30;72144;51.444;10.560;2024-02-14T13:57:36;10.00;82.75
82506;SHT30;72144;51.444;10.560;2024-02-14T14:00:06;10.00;82.77
82506;SHT30;72144;51.444;10.560;2024-02-14T14:02:34;10.01;82.70
82506;SHT30;72144;51.444;10.560;2024-02-14T14:05:02;10.04;82.75
82506;SHT30;72144;51.444;10.560;2024-02-14T14:07:28;10.04;82.76
82506;SHT30;72144;51.444;10.560;2024-02-14T14:09:54;10.07;82.71
82506;SHT30;72144;51.444;10.560;2024-02-14T14:12:19;10.07;82.69
82506;SHT30;72144;51.444;10.560;2024-02-14T14:14:45;10.06;82.67
82506;SHT30;72144;51.444;10.560;2024-02-14T14:17:10;10.07;82.67
82506;SHT30;72144;51.444;10.560;2024-02-14T14:19:35;10.08;82.67
82506;SHT30;72144;51.444;10.560;2024-02-14T14:22:01;10.10;82.70
82506;SHT30;72144;51.444;10.560;2024-02-14T14:24:27;10.11;82.75
82506;SHT30;72144;51.444;10.560;2024-02-14T14:26:54;10.11;82.77
82506;SHT30;72144;51.444;10.560;2024-02-14T14:29:19;10.13;82.78
82506;SHT30;72144;51.444;10.560;2024-02-14T14:31:45;10.14;82.82
82506;SHT30;72144;51.444;10.560;2024-02-14T14:34:10;10.14;82.84
82506;SHT30;72144;51.444;10.560;2024-02-14T14:36:36;10.16;82.85
82506;SHT30;72144;51.444;10.560;2024-02-14T14:39:04;10.11;82.91
82506;SHT30;72144;51.444;10.560;2024-02-14T14:41:29;10.11;82.97
82506;SHT30;72144;51.444;10.560;2024-02-14T14:43:56;10.11;83.03
82506;SHT30;72144;51.444;10.560;2024-02-14T14:46:21;10.10;83.12
82506;SHT30;72144;51.444;10.560;2024-02-14T14:48:46;10.11;83.15
82506;SHT30;72144;51.444;10.560;2024-02-14T14:51:12;10.07;83.21
82506;SHT30;72144;51.444;10.560;2024-02-14T14:53:37;10.10;83.26
82506;SHT30;72144;51.444;10.560;2024-02-14T14:56:03;10.04;83.29
82506;SHT30;72144;51.444;10.560;2024-02-14T14:58:28;10.06;83.29
82506;SHT30;72144;51.444;10.560;2024-02-14T15:00:57;10.07;83.24
82506;SHT30;72144;51.444;10.560;2024-02-14T15:03:25;10.06;83.27
82506;SHT30;72144;51.444;10.560;2024-02-14T15:05:51;10.07;83.30
82506;SHT30;72144;51.444;10.560;2024-02-14T15:08:17;10.08;83.20
82506;SHT30;72144;51.444;10.560;2024-02-14T15:10:44;10.08;83.27
82506;SHT30;72144;51.444;10.560;2024-02-14T15:13:10;10.10;83.25
82506;SHT30;72144;51.444;10.560;2024-02-14T15:15:38;10.08;83.25
82506;SHT30;72144;51.444;10.560;2024-02-14T15:18:04;10.10;83.29
82506;SHT30;72144;51.444;10.560;2024-02-14T15:20:30;10.13;83.30
82506;SHT30;72144;51.444;10.560;2024-02-14T15:22:56;10.10;83.35